Main page
METAR-TAF:

METAR-TAF

Airports :

Ruben Berta International Airport

Uruguaiana, Rio Grande do Sul, Brazil

latitude: 29-47S, longitude: 057-02W, elevation: 74 m

METAR: missing

Time: 20:06 (23:06 UTC)

Forecast

The report was made 8 hours and 6 minutes ago, at 15:00 UTC
Forecast valid from 22 at 18 UTC to 23 at 06 UTC
Wind 10 kt from the East/Northeast
Visibility: 8000 m
Broken clouds at a height of 2000 ft
Probability 40%
from 22 at 18 UTC to 22 at 22 UTC
Visibility: 3000 m
Broken clouds at a height of 1000 ft
Few clouds at a height of 3000 ft, Cumulonimbus.
thunderstorm, rain
Becoming
from 23 at 04 UTC to 23 at 06 UTC
Visibility: 4000 m
Broken clouds at a height of 1000 ft
mist

TAF: SBUG 221500Z 2218/2306 06010KT 8000 BKN020 TX24/2218Z TN21/2305Z PROB40 2218/2222 3000 TSRA BKN010 FEW030CB BECMG 2304/2306 4000 BR BKN010 RMK PEW

Weather observations and forecasts of more than 4000 airports (METAR and TAF reports).

The available stations are represented by yellow and red dots on the map.

Hover mouse over dot to see the name of the station.

Then click to see weather observations and forecasts.

To change the map : click on the green buttons with a black cross to zoom in, on the green button with a dash to zoom out, or on the green arrows for adjacent maps.


METAR-TAF: